createdAt,value
2023-07-23T00:00:52.399Z,0.00
2023-07-23T00:01:52.346Z,0.00
2023-07-23T00:02:52.294Z,0.00
2023-07-23T00:03:52.228Z,0.00
2023-07-23T00:04:52.142Z,0.00
2023-07-23T00:05:52.101Z,0.00
2023-07-23T00:06:52.019Z,0.00
2023-07-23T00:07:51.957Z,0.00
2023-07-23T00:08:51.930Z,0.00
2023-07-23T00:09:51.847Z,0.00
2023-07-23T00:10:51.777Z,0.00
2023-07-23T00:11:51.717Z,0.00
2023-07-23T00:12:51.714Z,0.00
2023-07-23T00:13:51.589Z,0.00
2023-07-23T00:14:51.558Z,0.00
2023-07-23T00:15:51.531Z,0.00
2023-07-23T00:16:51.424Z,0.00
2023-07-23T00:17:51.416Z,0.00
2023-07-23T00:18:51.358Z,0.00
2023-07-23T00:19:51.244Z,0.00
2023-07-23T00:20:51.154Z,0.00
2023-07-23T00:21:51.099Z,0.00
2023-07-23T00:22:51.035Z,0.00
2023-07-23T00:23:51.006Z,0.00
2023-07-23T00:24:50.993Z,0.00
2023-07-23T00:25:50.853Z,0.00
2023-07-23T00:26:50.804Z,0.00
2023-07-23T00:27:50.734Z,0.00
2023-07-23T00:28:50.677Z,0.00
2023-07-23T00:29:50.605Z,0.00
2023-07-23T00:30:50.553Z,0.00
2023-07-23T00:31:50.525Z,0.00
2023-07-23T00:32:50.521Z,0.00
2023-07-23T00:33:50.381Z,0.00
2023-07-23T00:34:50.311Z,0.00
2023-07-23T00:35:50.240Z,0.00
2023-07-23T00:36:50.184Z,0.00
2023-07-23T00:37:50.121Z,0.00
2023-07-23T00:38:50.060Z,0.00
2023-07-23T00:39:50.001Z,0.00
2023-07-23T00:40:49.950Z,0.00
2023-07-23T00:41:49.893Z,0.00
2023-07-23T00:42:49.808Z,0.00
2023-07-23T00:43:49.748Z,0.00
2023-07-23T00:44:49.693Z,0.00
2023-07-23T00:45:49.650Z,0.00
2023-07-23T00:46:49.573Z,0.00
2023-07-23T00:47:49.535Z,0.00
2023-07-23T00:48:49.475Z,0.00
2023-07-23T00:49:49.386Z,0.00
2023-07-23T00:50:49.318Z,0.00
2023-07-23T00:51:49.271Z,0.00
2023-07-23T00:52:49.206Z,0.00
2023-07-23T00:53:49.144Z,0.00
2023-07-23T00:54:49.088Z,0.00
2023-07-23T00:55:49.056Z,0.00
2023-07-23T00:56:48.953Z,0.00
2023-07-23T00:57:48.881Z,0.00
2023-07-23T00:58:48.874Z,0.00
2023-07-23T00:59:48.763Z,0.00
2023-07-23T01:00:48.708Z,0.00
2023-07-23T01:01:48.684Z,0.00
2023-07-23T01:02:48.607Z,0.00
2023-07-23T01:03:48.590Z,0.00
2023-07-23T01:04:48.515Z,0.00
2023-07-23T01:05:48.435Z,0.00
2023-07-23T01:06:48.358Z,0.00
2023-07-23T01:07:48.287Z,0.00
2023-07-23T01:08:48.222Z,0.00
2023-07-23T01:09:48.188Z,0.00
2023-07-23T01:10:48.099Z,0.00
2023-07-23T01:11:48.050Z,0.00
2023-07-23T01:12:47.985Z,0.00
2023-07-23T01:13:47.918Z,0.00
2023-07-23T01:14:47.857Z,0.00
2023-07-23T01:15:47.828Z,0.00
2023-07-23T01:16:47.739Z,0.00
2023-07-23T01:17:47.797Z,0.00
2023-07-23T01:18:47.651Z,0.00
2023-07-23T01:19:47.564Z,0.00
2023-07-23T01:20:47.505Z,0.00
2023-07-23T01:21:47.484Z,0.00
2023-07-23T01:22:47.398Z,0.00
2023-07-23T01:23:47.298Z,0.00
2023-07-23T01:24:47.287Z,0.00
2023-07-23T01:25:47.176Z,0.00
2023-07-23T01:26:47.126Z,0.00
2023-07-23T01:27:47.072Z,0.00
2023-07-23T01:28:46.996Z,0.00
2023-07-23T01:29:46.919Z,0.00
2023-07-23T01:30:46.908Z,0.00
2023-07-23T01:31:46.807Z,0.00
2023-07-23T01:32:46.795Z,0.00
2023-07-23T01:33:46.680Z,0.00
2023-07-23T01:34:46.625Z,0.00
2023-07-23T01:35:46.569Z,0.00
2023-07-23T01:36:46.504Z,0.00
2023-07-23T01:37:46.506Z,0.00
2023-07-23T01:38:46.372Z,0.00
2023-07-23T01:39:46.334Z,0.00
2023-07-23T01:40:46.262Z,0.00
2023-07-23T01:41:46.245Z,0.00
2023-07-23T01:42:46.159Z,0.00
2023-07-23T01:43:46.094Z,0.00
2023-07-23T01:44:46.002Z,0.00
2023-07-23T01:45:45.989Z,0.00
2023-07-23T01:46:45.924Z,0.00
2023-07-23T01:47:45.851Z,0.00
2023-07-23T01:48:45.784Z,0.00
2023-07-23T01:49:45.706Z,0.00
2023-07-23T01:50:45.650Z,0.00
2023-07-23T01:51:45.595Z,0.00
2023-07-23T01:52:45.510Z,0.00
2023-07-23T01:53:45.452Z,0.00
2023-07-23T01:54:45.401Z,0.00
2023-07-23T01:55:45.354Z,0.00
2023-07-23T01:56:45.280Z,0.00
2023-07-23T01:57:45.227Z,0.00
2023-07-23T01:58:45.138Z,0.00
2023-07-23T01:59:45.103Z,0.00
2023-07-23T02:00:45.061Z,0.00
2023-07-23T02:01:44.961Z,0.00
2023-07-23T02:02:45.009Z,0.00
2023-07-23T02:03:44.871Z,0.00
2023-07-23T02:04:44.779Z,0.00
2023-07-23T02:05:44.733Z,0.00
2023-07-23T02:06:44.650Z,0.00
2023-07-23T02:07:44.636Z,0.00
2023-07-23T02:08:44.536Z,0.00
2023-07-23T02:09:44.515Z,0.00
2023-07-23T02:10:44.465Z,0.00
2023-07-23T02:11:44.352Z,0.00
2023-07-23T02:12:44.304Z,0.00
2023-07-23T02:13:44.247Z,0.00
2023-07-23T02:14:44.163Z,0.00
2023-07-23T02:15:44.107Z,0.00
2023-07-23T02:16:44.078Z,0.00
2023-07-23T02:17:44.030Z,0.00
2023-07-23T02:18:43.952Z,0.00
2023-07-23T02:19:43.870Z,0.00
2023-07-23T02:20:43.806Z,0.00
2023-07-23T02:21:43.748Z,0.00
2023-07-23T02:22:43.681Z,0.00
2023-07-23T02:23:43.644Z,0.00
2023-07-23T02:24:43.575Z,0.00
2023-07-23T02:25:43.492Z,0.00
2023-07-23T02:26:43.430Z,0.00
2023-07-23T02:27:43.370Z,0.00
2023-07-23T02:28:43.309Z,0.00
2023-07-23T02:29:43.259Z,0.00
2023-07-23T02:30:43.234Z,0.00
2023-07-23T02:31:43.129Z,0.00
2023-07-23T02:32:43.088Z,0.00
2023-07-23T02:33:43.005Z,0.00
2023-07-23T02:34:42.926Z,0.00
2023-07-23T02:35:42.875Z,0.00
2023-07-23T02:36:42.833Z,0.00
2023-07-23T02:37:42.760Z,0.00
2023-07-23T02:38:42.693Z,0.00
2023-07-23T02:39:42.625Z,0.00
2023-07-23T02:40:42.590Z,0.00
2023-07-23T02:41:42.512Z,0.00
2023-07-23T02:42:42.442Z,0.00
2023-07-23T02:43:42.385Z,0.00
2023-07-23T02:44:42.343Z,0.00
2023-07-23T02:45:42.253Z,0.00
2023-07-23T02:46:42.328Z,0.00
2023-07-23T02:47:42.174Z,0.00
2023-07-23T02:48:42.090Z,0.00
2023-07-23T02:49:42.025Z,0.00
2023-07-23T02:50:41.956Z,0.00
2023-07-23T02:51:41.905Z,0.00
2023-07-23T02:52:41.821Z,0.00
2023-07-23T02:53:41.777Z,0.00
2023-07-23T02:54:41.722Z,0.00
2023-07-23T02:55:41.672Z,0.00
2023-07-23T02:56:41.587Z,0.00
2023-07-23T02:57:41.592Z,0.00
2023-07-23T02:58:41.459Z,0.00
2023-07-23T02:59:41.388Z,0.00
2023-07-23T03:00:41.329Z,0.00
2023-07-23T03:01:41.313Z,0.00
2023-07-23T03:02:41.340Z,0.00
2023-07-23T03:03:41.161Z,0.00
2023-07-23T03:04:41.082Z,0.00
2023-07-23T03:05:41.025Z,0.00
2023-07-23T03:06:40.998Z,0.00
2023-07-23T03:07:40.906Z,0.00
2023-07-23T03:08:40.859Z,0.00
2023-07-23T03:09:40.818Z,4.00
2023-07-23T03:10:40.735Z,4.00
2023-07-23T03:11:40.655Z,4.00
2023-07-23T03:12:40.618Z,4.00
2023-07-23T03:13:40.528Z,0.00
2023-07-23T03:14:40.459Z,4.00
2023-07-23T03:15:40.406Z,4.00
2023-07-23T03:16:40.394Z,4.00
2023-07-23T03:17:40.302Z,8.00
2023-07-23T03:18:40.217Z,4.00
2023-07-23T03:19:40.177Z,8.00
2023-07-23T03:20:40.125Z,8.00
2023-07-23T03:21:40.042Z,8.00
2023-07-23T03:22:39.977Z,12.00
2023-07-23T03:23:39.929Z,12.00
2023-07-23T03:24:39.871Z,16.00
2023-07-23T03:25:39.814Z,20.00
2023-07-23T03:26:39.735Z,24.00
2023-07-23T03:27:39.670Z,24.00
2023-07-23T03:28:39.622Z,28.00
2023-07-23T03:29:39.556Z,28.00
2023-07-23T03:30:39.481Z,32.00
2023-07-23T03:31:39.450Z,32.00
2023-07-23T03:32:39.458Z,36.00
2023-07-23T03:33:39.317Z,36.00
2023-07-23T03:34:39.242Z,40.00
2023-07-23T03:35:39.175Z,40.00
2023-07-23T03:36:39.108Z,44.00
2023-07-23T03:37:39.095Z,40.00
2023-07-23T03:38:38.995Z,48.00
2023-07-23T03:39:38.941Z,48.00
2023-07-23T03:40:38.864Z,52.00
2023-07-23T03:41:38.817Z,52.00
2023-07-23T03:42:38.751Z,56.00
2023-07-23T03:43:38.683Z,56.00
2023-07-23T03:44:38.614Z,56.00
2023-07-23T03:45:38.633Z,60.00
2023-07-23T03:46:38.507Z,60.00
2023-07-23T03:47:38.456Z,64.00
2023-07-23T03:48:38.374Z,64.00
2023-07-23T03:49:38.306Z,68.00
2023-07-23T03:50:38.248Z,68.00
2023-07-23T03:51:38.178Z,72.00
2023-07-23T03:52:38.125Z,76.00
2023-07-23T03:53:38.056Z,80.00
2023-07-23T03:54:38.001Z,84.00
2023-07-23T03:55:37.953Z,88.00
2023-07-23T03:56:37.867Z,88.00
2023-07-23T03:57:38.494Z,88.00
2023-07-23T03:58:37.753Z,92.00
2023-07-23T03:59:37.692Z,96.00
2023-07-23T04:00:37.623Z,100.00
2023-07-23T04:01:37.577Z,104.00
2023-07-23T04:02:37.515Z,108.00
2023-07-23T04:03:37.489Z,112.00
2023-07-23T04:04:37.406Z,112.00
2023-07-23T04:05:37.338Z,116.00
2023-07-23T04:06:37.282Z,116.00
2023-07-23T04:07:37.197Z,116.00
2023-07-23T04:08:37.160Z,120.00
2023-07-23T04:09:37.080Z,120.00
2023-07-23T04:10:37.005Z,124.00
2023-07-23T04:11:36.944Z,128.00
2023-07-23T04:12:36.885Z,132.00
2023-07-23T04:13:36.823Z,136.00
2023-07-23T04:14:36.756Z,136.00
2023-07-23T04:15:36.705Z,132.00
2023-07-23T04:16:36.665Z,128.00
2023-07-23T04:17:36.579Z,128.00
2023-07-23T04:18:36.513Z,124.00
2023-07-23T04:19:36.462Z,124.00
2023-07-23T04:20:36.375Z,124.00
2023-07-23T04:21:36.325Z,128.00
2023-07-23T04:22:36.284Z,132.00
2023-07-23T04:23:36.200Z,144.00
2023-07-23T04:24:36.163Z,148.00
2023-07-23T04:25:36.076Z,148.00
2023-07-23T04:26:36.022Z,152.00
2023-07-23T04:27:35.941Z,160.00
2023-07-23T04:28:35.876Z,168.00
2023-07-23T04:29:35.819Z,172.00
2023-07-23T04:30:35.760Z,176.00
2023-07-23T04:31:35.727Z,176.00
2023-07-23T04:32:35.660Z,180.00
2023-07-23T04:33:35.572Z,180.00
2023-07-23T04:34:35.501Z,180.00
2023-07-23T04:35:35.464Z,180.00
2023-07-23T04:36:35.433Z,176.00
2023-07-23T04:37:35.314Z,168.00
2023-07-23T04:38:35.258Z,168.00
2023-07-23T04:39:35.194Z,168.00
2023-07-23T04:40:35.150Z,168.00
2023-07-23T04:41:35.074Z,168.00
2023-07-23T04:42:35.018Z,172.00
2023-07-23T04:43:34.954Z,172.00
2023-07-23T04:44:34.881Z,176.00
2023-07-23T04:45:34.876Z,176.00
2023-07-23T04:46:34.755Z,176.00
2023-07-23T04:47:34.733Z,172.00
2023-07-23T04:48:34.653Z,172.00
2023-07-23T04:49:34.589Z,172.00
2023-07-23T04:50:34.511Z,164.00
2023-07-23T04:51:34.457Z,160.00
2023-07-23T04:52:34.387Z,152.00
2023-07-23T04:53:34.328Z,152.00
2023-07-23T04:54:34.264Z,156.00
2023-07-23T04:55:34.213Z,160.00
2023-07-23T04:56:34.144Z,164.00
2023-07-23T04:57:34.086Z,168.00
2023-07-23T04:58:34.008Z,180.00
2023-07-23T04:59:33.947Z,196.00
2023-07-23T05:00:33.884Z,212.00
2023-07-23T05:01:33.843Z,220.00
2023-07-23T05:02:33.835Z,224.00
2023-07-23T05:03:33.743Z,232.00
2023-07-23T05:04:33.649Z,236.00
2023-07-23T05:05:33.614Z,244.00
2023-07-23T05:06:33.529Z,264.00
2023-07-23T05:07:33.461Z,292.00
2023-07-23T05:08:33.404Z,304.00
2023-07-23T05:09:33.348Z,292.00
2023-07-23T05:10:33.286Z,284.00
2023-07-23T05:11:33.220Z,256.00
2023-07-23T05:12:33.175Z,228.00
2023-07-23T05:13:33.112Z,240.00
2023-07-23T05:14:33.031Z,272.00
2023-07-23T05:15:32.993Z,304.00
2023-07-23T05:16:32.903Z,316.00
2023-07-23T05:17:32.879Z,332.00
2023-07-23T05:18:32.816Z,348.00
2023-07-23T05:19:32.726Z,376.00
2023-07-23T05:20:32.660Z,404.00
2023-07-23T05:21:32.636Z,412.00
2023-07-23T05:22:34.056Z,424.00
2023-07-23T05:23:32.476Z,424.00
2023-07-23T05:24:32.438Z,416.00
2023-07-23T05:25:32.361Z,404.00
2023-07-23T05:26:32.293Z,392.00
2023-07-23T05:27:32.249Z,408.00
2023-07-23T05:28:32.168Z,436.00
2023-07-23T05:29:32.098Z,460.00
2023-07-23T05:30:32.041Z,464.00
2023-07-23T05:31:32.128Z,468.00
2023-07-23T05:32:31.955Z,488.00
2023-07-23T05:33:31.852Z,516.00
2023-07-23T05:34:31.834Z,548.00
2023-07-23T05:35:31.728Z,568.00
2023-07-23T05:36:31.669Z,564.00
2023-07-23T05:37:31.641Z,548.00
2023-07-23T05:38:31.553Z,532.00
2023-07-23T05:39:31.494Z,520.00
2023-07-23T05:40:31.428Z,520.00
2023-07-23T05:41:31.705Z,528.00
2023-07-23T05:42:31.309Z,532.00
2023-07-23T05:43:31.235Z,536.00
2023-07-23T05:44:31.240Z,544.00
2023-07-23T05:45:31.240Z,556.00
2023-07-23T05:46:31.081Z,568.00
2023-07-23T05:47:31.155Z,588.00
2023-07-23T05:48:30.952Z,604.00
2023-07-23T05:49:30.890Z,632.00
2023-07-23T05:50:30.868Z,656.00
2023-07-23T05:51:30.993Z,688.00
2023-07-23T05:52:30.691Z,712.00
2023-07-23T05:53:30.632Z,736.00
2023-07-23T05:54:30.554Z,756.00
2023-07-23T05:55:30.522Z,772.00
2023-07-23T05:56:30.433Z,768.00
2023-07-23T05:57:30.383Z,756.00
2023-07-23T05:58:30.335Z,732.00
2023-07-23T05:59:30.265Z,712.00
2023-07-23T06:00:30.245Z,680.00
2023-07-23T06:01:30.415Z,624.00
2023-07-23T06:02:30.114Z,572.00
2023-07-23T06:03:39.893Z,536.00
2023-07-23T06:04:30.002Z,532.00
2023-07-23T06:05:29.895Z,532.00
2023-07-23T06:06:29.828Z,548.00
2023-07-23T06:07:29.769Z,544.00
2023-07-23T06:08:29.740Z,516.00
2023-07-23T06:09:29.715Z,480.00
2023-07-23T06:10:29.646Z,456.00
2023-07-23T06:11:29.806Z,444.00
2023-07-23T06:12:29.463Z,440.00
2023-07-23T06:13:29.444Z,436.00
2023-07-23T06:14:29.419Z,408.00
2023-07-23T06:15:29.297Z,412.00
2023-07-23T06:16:29.235Z,452.00
2023-07-23T06:17:29.191Z,504.00
2023-07-23T06:18:29.106Z,540.00
2023-07-23T06:19:29.031Z,568.00
2023-07-23T06:20:29.029Z,608.00
2023-07-23T06:21:29.145Z,656.00
2023-07-23T06:22:28.861Z,672.00
2023-07-23T06:23:28.819Z,684.00
2023-07-23T06:24:28.769Z,720.00
2023-07-23T06:25:28.675Z,784.00
2023-07-23T06:26:28.632Z,848.00
2023-07-23T06:27:28.553Z,876.00
2023-07-23T06:28:28.495Z,900.00
2023-07-23T06:29:28.434Z,948.00
2023-07-23T06:30:28.362Z,1004.00
2023-07-23T06:31:28.525Z,1048.00
2023-07-23T06:32:28.273Z,1068.00
2023-07-23T06:33:28.184Z,1112.00
2023-07-23T06:34:28.130Z,1144.00
2023-07-23T06:35:28.048Z,1156.00
2023-07-23T06:36:28.005Z,1208.00
2023-07-23T06:37:27.939Z,1268.00
2023-07-23T06:38:27.889Z,1268.00
2023-07-23T06:39:27.815Z,1284.00
2023-07-23T06:40:27.758Z,1312.00
2023-07-23T06:41:28.134Z,1372.00
2023-07-23T06:42:27.642Z,1380.00
2023-07-23T06:43:27.583Z,1384.00
2023-07-23T06:44:27.513Z,1396.00
2023-07-23T06:45:27.452Z,1400.00
2023-07-23T06:46:27.407Z,1428.00
2023-07-23T06:47:27.352Z,1480.00
2023-07-23T06:48:27.273Z,1440.00
2023-07-23T06:49:27.214Z,1400.00
2023-07-23T06:50:27.154Z,1276.00
2023-07-23T06:51:27.524Z,1184.00
2023-07-23T06:52:27.031Z,1184.00
2023-07-23T06:53:27.012Z,1192.00
2023-07-23T06:54:26.906Z,1192.00
2023-07-23T06:55:26.848Z,1152.00
2023-07-23T06:56:26.804Z,1120.00
2023-07-23T06:57:26.730Z,1116.00
2023-07-23T06:58:26.661Z,1112.00
2023-07-23T06:59:26.645Z,1192.00
2023-07-23T07:00:26.569Z,1308.00
2023-07-23T07:01:26.917Z,1384.00
2023-07-23T07:02:26.449Z,1440.00
2023-07-23T07:03:26.437Z,1420.00
2023-07-23T07:04:27.790Z,1368.00
2023-07-23T07:05:26.255Z,1324.00
2023-07-23T07:06:26.174Z,1284.00
2023-07-23T07:07:26.123Z,1296.00
2023-07-23T07:08:26.052Z,1272.00
2023-07-23T07:09:25.992Z,1268.00
2023-07-23T07:10:26.032Z,1316.00
2023-07-23T07:11:26.096Z,1360.00
2023-07-23T07:12:25.821Z,1412.00
2023-07-23T07:13:25.747Z,1512.00
2023-07-23T07:14:25.693Z,1592.00
2023-07-23T07:15:25.634Z,2016.00
2023-07-23T07:16:25.593Z,1772.00
2023-07-23T07:17:25.547Z,2000.00
2023-07-23T07:18:25.457Z,1788.00
2023-07-23T07:19:25.388Z,1700.00
2023-07-23T07:20:25.336Z,1716.00
2023-07-23T07:21:25.286Z,1832.00
2023-07-23T07:22:25.242Z,1880.00
2023-07-23T07:23:25.162Z,1496.00
2023-07-23T07:24:25.117Z,1392.00
2023-07-23T07:25:25.059Z,1364.00
2023-07-23T07:26:24.985Z,1408.00
2023-07-23T07:27:24.922Z,1496.00
2023-07-23T07:28:24.873Z,1548.00
2023-07-23T07:29:24.804Z,1564.00
2023-07-23T07:30:24.803Z,1500.00
2023-07-23T07:31:24.728Z,1416.00
2023-07-23T07:32:24.644Z,1340.00
2023-07-23T07:33:24.564Z,1240.00
2023-07-23T07:34:24.498Z,1240.00
2023-07-23T07:35:24.457Z,1296.00
2023-07-23T07:36:24.376Z,1364.00
2023-07-23T07:37:24.355Z,1452.00
2023-07-23T07:38:24.294Z,1640.00
2023-07-23T07:39:24.199Z,1812.00
2023-07-23T07:40:24.146Z,1904.00
2023-07-23T07:41:24.088Z,2036.00
2023-07-23T07:42:24.034Z,2060.00
2023-07-23T07:43:23.952Z,1884.00
2023-07-23T07:44:23.913Z,1656.00
2023-07-23T07:45:23.849Z,1416.00
2023-07-23T07:46:23.799Z,1300.00
2023-07-23T07:47:23.767Z,1352.00
2023-07-23T07:48:23.660Z,1384.00
2023-07-23T07:49:23.594Z,1384.00
2023-07-23T07:50:23.667Z,1332.00
2023-07-23T07:51:23.498Z,1316.00
2023-07-23T07:52:23.457Z,1296.00
2023-07-23T07:53:23.402Z,1244.00
2023-07-23T07:54:23.309Z,1224.00
2023-07-23T07:55:23.288Z,1212.00
2023-07-23T07:56:23.201Z,1236.00
2023-07-23T07:57:23.144Z,1260.00
2023-07-23T07:58:23.080Z,1304.00
2023-07-23T07:59:23.006Z,1372.00
2023-07-23T08:00:23.019Z,1464.00
2023-07-23T08:01:22.906Z,1564.00
2023-07-23T08:02:22.984Z,1632.00
2023-07-23T08:04:22.825Z,1636.00
2023-07-23T08:05:22.790Z,1604.00
2023-07-23T08:06:22.597Z,1508.00
2023-07-23T08:07:22.530Z,1428.00
2023-07-23T08:08:22.477Z,1348.00
2023-07-23T08:09:22.424Z,1288.00
2023-07-23T08:10:22.428Z,1284.00
2023-07-23T08:11:22.309Z,1296.00
2023-07-23T08:12:22.277Z,1356.00
2023-07-23T08:13:22.186Z,1424.00
2023-07-23T08:14:22.128Z,1488.00
2023-07-23T08:15:22.083Z,1588.00
2023-07-23T08:16:22.101Z,1560.00
2023-07-23T08:17:21.969Z,1604.00
2023-07-23T08:18:21.894Z,1664.00
2023-07-23T08:19:21.885Z,1680.00
2023-07-23T08:20:21.889Z,1656.00
2023-07-23T08:21:21.733Z,1528.00
2023-07-23T08:22:21.702Z,1424.00
2023-07-23T08:23:21.641Z,1352.00
2023-07-23T08:24:21.555Z,1300.00
2023-07-23T08:25:21.464Z,1264.00
2023-07-23T08:26:21.430Z,1256.00
2023-07-23T08:27:21.371Z,1260.00
2023-07-23T08:28:21.389Z,1268.00
2023-07-23T08:29:21.258Z,1268.00
2023-07-23T08:30:21.179Z,1244.00
2023-07-23T08:31:21.147Z,1236.00
2023-07-23T08:32:21.225Z,1260.00
2023-07-23T08:33:21.064Z,1324.00
2023-07-23T08:34:20.987Z,1428.00
2023-07-23T08:35:20.881Z,1560.00
2023-07-23T08:36:20.828Z,1684.00
2023-07-23T08:37:20.787Z,1728.00
2023-07-23T08:38:20.711Z,1812.00
2023-07-23T08:39:20.654Z,1880.00
2023-07-23T08:40:20.615Z,1948.00
2023-07-23T08:41:20.545Z,2036.00
2023-07-23T08:42:20.480Z,2084.00
2023-07-23T08:43:20.462Z,2112.00
2023-07-23T08:44:20.378Z,2036.00
2023-07-23T08:45:20.309Z,1916.00
2023-07-23T08:46:20.292Z,1936.00
2023-07-23T08:47:20.181Z,2016.00
2023-07-23T08:48:20.106Z,2068.00
2023-07-23T08:49:20.047Z,2088.00
2023-07-23T08:50:20.021Z,2100.00
2023-07-23T08:51:19.939Z,2124.00
2023-07-23T08:52:19.870Z,2092.00
2023-07-23T08:53:19.943Z,2132.00
2023-07-23T08:54:19.759Z,2236.00
2023-07-23T08:55:19.705Z,2212.00
2023-07-23T08:56:19.642Z,2156.00
2023-07-23T08:57:19.586Z,2068.00
2023-07-23T08:58:19.518Z,2020.00
2023-07-23T08:59:19.461Z,2048.00
2023-07-23T09:00:19.423Z,2128.00
2023-07-23T09:01:19.379Z,2252.00
2023-07-23T09:02:19.299Z,2312.00
2023-07-23T09:03:19.460Z,2288.00
2023-07-23T09:04:19.188Z,2252.00
2023-07-23T09:05:19.121Z,2120.00
2023-07-23T09:06:19.053Z,2072.00
2023-07-23T09:07:18.985Z,2016.00
2023-07-23T09:08:18.954Z,1976.00
2023-07-23T09:09:18.896Z,1972.00
2023-07-23T09:10:18.818Z,2024.00
2023-07-23T09:11:18.766Z,1964.00
2023-07-23T09:12:18.709Z,2000.00
2023-07-23T09:13:18.678Z,2064.00
2023-07-23T09:14:18.624Z,2240.00
2023-07-23T09:15:18.531Z,2276.00
2023-07-23T09:16:18.485Z,2404.00
2023-07-23T09:17:18.420Z,2528.00
2023-07-23T09:18:18.366Z,2260.00
2023-07-23T09:19:18.292Z,2156.00
2023-07-23T09:20:18.279Z,2168.00
2023-07-23T09:21:18.750Z,2220.00
2023-07-23T09:22:18.134Z,2220.00
2023-07-23T09:23:18.078Z,2232.00
2023-07-23T09:24:18.086Z,2276.00
2023-07-23T09:25:17.956Z,2396.00
2023-07-23T09:26:17.896Z,2484.00
2023-07-23T09:27:17.844Z,2460.00
2023-07-23T09:28:17.779Z,2284.00
2023-07-23T09:29:17.742Z,2300.00
2023-07-23T09:30:17.674Z,2200.00
2023-07-23T09:31:17.633Z,2172.00
2023-07-23T09:32:17.570Z,2172.00
2023-07-23T09:33:17.501Z,2156.00
2023-07-23T09:34:17.432Z,2160.00
2023-07-23T09:35:17.365Z,2152.00
2023-07-23T09:36:17.317Z,2152.00
2023-07-23T09:37:17.270Z,2136.00
2023-07-23T09:38:19.935Z,2160.00
2023-07-23T09:39:17.145Z,2172.00
2023-07-23T09:40:17.085Z,2204.00
2023-07-23T09:41:17.025Z,2288.00
2023-07-23T09:42:16.970Z,2264.00
2023-07-23T09:43:16.930Z,2284.00
2023-07-23T09:44:18.815Z,2228.00
2023-07-23T09:45:16.801Z,2208.00
2023-07-23T09:46:16.790Z,2204.00
2023-07-23T09:47:16.705Z,2236.00
2023-07-23T09:48:17.576Z,2256.00
2023-07-23T09:49:16.568Z,2320.00
2023-07-23T09:50:18.218Z,2408.00
2023-07-23T09:51:16.455Z,2476.00
2023-07-23T09:52:16.399Z,2612.00
2023-07-23T09:53:16.362Z,2672.00
2023-07-23T09:54:16.273Z,2744.00
2023-07-23T09:55:16.242Z,2752.00
2023-07-23T09:56:16.170Z,2804.00
2023-07-23T09:57:16.128Z,2844.00
2023-07-23T09:58:16.043Z,2740.00
2023-07-23T09:59:15.988Z,2668.00
2023-07-23T10:00:15.968Z,2652.00
2023-07-23T10:01:15.904Z,2544.00
2023-07-23T10:02:15.869Z,2504.00
2023-07-23T10:03:15.842Z,2456.00
2023-07-23T10:04:15.708Z,2380.00
2023-07-23T10:05:15.648Z,2340.00
2023-07-23T10:06:15.600Z,2356.00
2023-07-23T10:07:15.548Z,2348.00
2023-07-23T10:08:15.493Z,2408.00
2023-07-23T10:09:15.433Z,2420.00
2023-07-23T10:10:15.369Z,2568.00
2023-07-23T10:11:15.314Z,2668.00
2023-07-23T10:12:15.236Z,2728.00
2023-07-23T10:13:15.222Z,2716.00
2023-07-23T10:14:15.147Z,2724.00
2023-07-23T10:15:15.091Z,2688.00
2023-07-23T10:16:15.028Z,2728.00
2023-07-23T10:17:14.990Z,2668.00
2023-07-23T10:18:14.918Z,2604.00
2023-07-23T10:19:14.860Z,2696.00
2023-07-23T10:20:14.810Z,2576.00
2023-07-23T10:21:14.755Z,2592.00
2023-07-23T10:22:14.682Z,2616.00
2023-07-23T10:23:14.621Z,2640.00
2023-07-23T10:24:14.592Z,2584.00
2023-07-23T10:25:28.798Z,2652.00
2023-07-23T10:26:14.442Z,2768.00
2023-07-23T10:27:14.389Z,2856.00
2023-07-23T10:28:14.338Z,2804.00
2023-07-23T10:29:14.349Z,2776.00
2023-07-23T10:30:14.243Z,2728.00
2023-07-23T10:31:14.207Z,2576.00
2023-07-23T10:32:14.118Z,2536.00
2023-07-23T10:33:14.055Z,2580.00
2023-07-23T10:34:14.000Z,2568.00
2023-07-23T10:35:13.963Z,2692.00
2023-07-23T10:36:13.886Z,2764.00
2023-07-23T10:37:13.859Z,2908.00
2023-07-23T10:38:13.793Z,2860.00
2023-07-23T10:39:13.740Z,2784.00
2023-07-23T10:40:13.678Z,2736.00
2023-07-23T10:41:13.619Z,2656.00
2023-07-23T10:42:13.551Z,2680.00
2023-07-23T10:43:13.556Z,2600.00
2023-07-23T10:44:13.456Z,2544.00
2023-07-23T10:45:13.387Z,2628.00
2023-07-23T10:46:13.348Z,2868.00
2023-07-23T10:47:13.271Z,2928.00
2023-07-23T10:48:13.216Z,3288.00
2023-07-23T10:49:13.155Z,3036.00
2023-07-23T10:50:13.119Z,2936.00
2023-07-23T10:51:13.071Z,2892.00
2023-07-23T10:52:12.989Z,2908.00
2023-07-23T10:53:12.926Z,2988.00
2023-07-23T10:54:12.890Z,2984.00
2023-07-23T10:55:13.730Z,2984.00
2023-07-23T10:56:12.783Z,4296.00
2023-07-23T10:57:12.725Z,5092.00
2023-07-23T10:58:12.726Z,3168.00
2023-07-23T10:59:12.615Z,3372.00
2023-07-23T11:00:12.548Z,4884.00
2023-07-23T11:01:12.518Z,5116.00
2023-07-23T11:02:12.424Z,4496.00
2023-07-23T11:03:12.489Z,5268.00
2023-07-23T11:04:12.332Z,7064.00
2023-07-23T11:05:12.311Z,4472.00
2023-07-23T11:06:12.261Z,5808.00
2023-07-23T11:07:12.159Z,4684.00
2023-07-23T11:08:12.109Z,6480.00
2023-07-23T11:09:12.051Z,6620.00
2023-07-23T11:10:11.992Z,6656.00
2023-07-23T11:11:11.967Z,7220.00
2023-07-23T11:12:11.898Z,6092.00
2023-07-23T11:13:11.865Z,4544.00
2023-07-23T11:14:11.788Z,6068.00
2023-07-23T11:15:11.745Z,3804.00
2023-07-23T11:16:11.711Z,2896.00
2023-07-23T11:17:11.635Z,4124.00
2023-07-23T11:18:11.605Z,4684.00
2023-07-23T11:19:11.554Z,4840.00
2023-07-23T11:20:11.477Z,4240.00
2023-07-23T11:21:11.423Z,5128.00
2023-07-23T11:22:11.379Z,3752.00
2023-07-23T11:23:11.332Z,2944.00
2023-07-23T11:24:11.286Z,2484.00
2023-07-23T11:25:11.216Z,2300.00
2023-07-23T11:26:11.170Z,2308.00
2023-07-23T11:27:11.124Z,2260.00
2023-07-23T11:28:11.097Z,2268.00
2023-07-23T11:29:10.999Z,2604.00
2023-07-23T11:30:10.949Z,2612.00
2023-07-23T11:31:10.964Z,2624.00
2023-07-23T11:32:10.843Z,2744.00
2023-07-23T11:33:10.801Z,2792.00
2023-07-23T11:34:10.735Z,3584.00
2023-07-23T11:35:10.703Z,4688.00
2023-07-23T11:36:10.648Z,8728.00
2023-07-23T11:37:10.580Z,9088.00
2023-07-23T11:38:10.529Z,8216.00
2023-07-23T11:39:10.481Z,7840.00
2023-07-23T11:40:10.428Z,7084.00
2023-07-23T11:41:10.354Z,3004.00
2023-07-23T11:42:10.353Z,2768.00
2023-07-23T11:43:10.278Z,5816.00
2023-07-23T11:44:10.206Z,6140.00
2023-07-23T11:45:10.184Z,3576.00
2023-07-23T11:46:10.188Z,2484.00
2023-07-23T11:47:10.040Z,5568.00
2023-07-23T11:48:09.973Z,5056.00
2023-07-23T11:49:09.963Z,3084.00
2023-07-23T11:50:09.897Z,5120.00
2023-07-23T11:51:09.828Z,3316.00
2023-07-23T11:52:09.790Z,3456.00
2023-07-23T11:53:09.712Z,4776.00
2023-07-23T11:54:09.671Z,4572.00
2023-07-23T11:55:09.635Z,4660.00
2023-07-23T11:56:09.551Z,4364.00
2023-07-23T11:57:09.536Z,3808.00
2023-07-23T11:58:09.547Z,3572.00
2023-07-23T11:59:09.406Z,3248.00
2023-07-23T12:00:09.353Z,3192.00
2023-07-23T12:01:09.325Z,3344.00
2023-07-23T12:02:09.243Z,4712.00
2023-07-23T12:03:09.307Z,4620.00
2023-07-23T12:04:09.147Z,4512.00
2023-07-23T12:05:09.099Z,4504.00
2023-07-23T12:06:09.105Z,4304.00
2023-07-23T12:07:08.998Z,4176.00
2023-07-23T12:08:09.003Z,3624.00
2023-07-23T12:09:08.865Z,3708.00
2023-07-23T12:10:08.849Z,3216.00
2023-07-23T12:11:08.758Z,2496.00
2023-07-23T12:12:08.717Z,2944.00
2023-07-23T12:13:08.662Z,1892.00
2023-07-23T12:14:08.629Z,1600.00
2023-07-23T12:15:08.561Z,1456.00
2023-07-23T12:16:08.547Z,1440.00
2023-07-23T12:17:08.455Z,1452.00
2023-07-23T12:18:08.406Z,1612.00
2023-07-23T12:19:08.337Z,2004.00
2023-07-23T12:20:08.282Z,2632.00
2023-07-23T12:21:08.231Z,2992.00
2023-07-23T12:22:08.191Z,3120.00
2023-07-23T12:23:08.114Z,3224.00
2023-07-23T12:24:08.066Z,3124.00
2023-07-23T12:25:08.006Z,3040.00
2023-07-23T12:26:07.958Z,2888.00
2023-07-23T12:27:07.910Z,2564.00
2023-07-23T12:28:07.840Z,2240.00
2023-07-23T12:29:07.813Z,2204.00
2023-07-23T12:30:07.748Z,2268.00
2023-07-23T12:31:07.708Z,2276.00
2023-07-23T12:32:07.650Z,2128.00